createdAt,value
2018-11-20T00:01:58.431Z,95997.03
2018-11-20T00:04:46.668Z,96001.63
2018-11-20T00:07:24.365Z,95985.89
2018-11-20T00:10:12.581Z,95991.01
2018-11-20T00:13:00.339Z,95978.54
2018-11-20T00:15:48.579Z,95961.86
2018-11-20T00:18:37.237Z,95956.09
2018-11-20T00:21:11.901Z,95961.52
2018-11-20T00:24:00.928Z,95973.59
2018-11-20T00:27:08.014Z,95961.61
2018-11-20T00:35:56.875Z,95950.34
2018-11-20T00:38:45.104Z,95956.19
2018-11-20T00:47:28.143Z,95947.11
2018-11-20T00:50:16.551Z,95950.50
2018-11-20T00:59:03.884Z,95969.85
2018-11-20T01:08:11.337Z,95942.50
2018-11-20T01:10:59.632Z,95935.06
2018-11-20T01:17:08.177Z,95919.44
2018-11-20T01:22:59.540Z,95924.52
2018-11-20T01:25:47.781Z,95928.72
2018-11-20T01:28:36.132Z,95917.92
2018-11-20T01:31:24.385Z,95919.64
2018-11-20T01:37:39.520Z,95920.63
2018-11-20T01:40:27.419Z,95927.34
2018-11-20T01:43:07.235Z,95917.42
2018-11-20T01:51:56.123Z,95899.34
2018-11-20T01:54:44.471Z,95891.42
2018-11-20T02:00:29.975Z,95883.55
2018-11-20T02:03:18.317Z,95874.11
2018-11-20T02:06:06.568Z,95898.72
2018-11-20T02:08:54.889Z,95895.05
2018-11-20T02:11:43.230Z,95890.95
2018-11-20T02:14:54.397Z,95882.30
2018-11-20T02:18:04.039Z,95885.61
2018-11-20T02:23:57.615Z,95884.17
2018-11-20T02:26:45.983Z,95887.56
2018-11-20T02:35:28.228Z,95883.65
2018-11-20T02:38:16.593Z,95886.22
2018-11-20T02:41:04.796Z,95882.20
2018-11-20T02:43:53.054Z,95878.17
2018-11-20T02:52:35.214Z,95843.12
2018-11-20T02:58:49.513Z,95848.80
2018-11-20T03:01:28.814Z,95856.30
2018-11-20T03:04:36.468Z,95853.80
2018-11-20T03:13:12.606Z,95853.59
2018-11-20T03:18:58.780Z,95853.63
2018-11-20T03:21:35.295Z,95858.62
2018-11-20T03:24:23.639Z,95851.55
2018-11-20T03:27:11.944Z,95843.70
2018-11-20T03:36:31.234Z,95847.59
2018-11-20T03:39:19.595Z,95842.16
2018-11-20T03:42:07.639Z,95830.56
2018-11-20T03:47:52.822Z,95823.23
2018-11-20T03:50:41.041Z,95828.30
2018-11-20T03:53:29.316Z,95824.23
2018-11-20T03:56:20.974Z,95827.59
2018-11-20T03:59:08.164Z,95824.73
2018-11-20T04:01:57.470Z,95819.37
2018-11-20T04:04:45.733Z,95823.12
2018-11-20T04:07:34.087Z,95820.16
2018-11-20T04:13:27.971Z,95813.19
2018-11-20T04:16:16.212Z,95816.58
2018-11-20T04:19:04.507Z,95803.25
2018-11-20T04:21:52.783Z,95812.00
2018-11-20T04:33:56.329Z,95795.39
2018-11-20T04:36:48.174Z,95787.14
2018-11-20T04:39:37.054Z,95790.55
2018-11-20T04:42:25.360Z,95780.55
2018-11-20T04:51:13.541Z,95770.63
2018-11-20T04:54:05.479Z,95781.87
2018-11-20T04:59:50.635Z,95780.62
2018-11-20T05:02:39.510Z,95771.91
2018-11-20T05:05:40.455Z,95771.47
2018-11-20T05:08:31.857Z,95768.58
2018-11-20T05:17:14.471Z,95764.03
2018-11-20T05:20:32.143Z,95764.03
2018-11-20T05:23:20.374Z,95759.89
2018-11-20T05:35:16.359Z,95757.55
2018-11-20T05:38:04.617Z,95753.34
2018-11-20T05:40:52.886Z,95752.97
2018-11-20T05:43:41.172Z,95753.86
2018-11-20T05:46:29.476Z,95755.17
2018-11-20T05:49:17.749Z,95766.48
2018-11-20T06:00:57.723Z,95781.80
2018-11-20T06:06:50.133Z,95777.73
2018-11-20T06:09:42.378Z,95773.16
2018-11-20T06:12:30.650Z,95783.59
2018-11-20T06:15:19.006Z,95784.36
2018-11-20T06:18:07.277Z,95788.84
2018-11-20T06:21:25.033Z,95780.45
2018-11-20T06:24:13.381Z,95785.39
2018-11-20T06:27:01.639Z,95789.66
2018-11-20T06:35:44.380Z,95798.42
2018-11-20T06:38:33.259Z,95800.92
2018-11-20T06:41:21.682Z,95805.07
2018-11-20T06:44:09.884Z,95812.23
2018-11-20T06:49:55.919Z,95809.73
2018-11-20T06:56:00.503Z,95808.95
2018-11-20T06:58:48.765Z,95799.34
2018-11-20T07:01:37.177Z,95799.73
2018-11-20T07:04:25.438Z,95805.56
2018-11-20T07:07:12.418Z,95801.87
2018-11-20T07:10:00.856Z,95796.87
2018-11-20T07:13:34.302Z,95787.28
2018-11-20T07:16:42.913Z,95787.28
2018-11-20T07:19:44.573Z,95783.17
2018-11-20T07:22:34.755Z,95784.88
2018-11-20T07:25:11.866Z,95784.05
2018-11-20T07:31:01.180Z,95769.04
2018-11-20T07:33:49.478Z,95770.30
2018-11-20T07:39:21.208Z,95765.75
2018-11-20T07:42:09.459Z,95762.42
2018-11-20T07:44:52.776Z,95756.56
2018-11-20T07:47:44.157Z,95749.91
2018-11-20T07:50:33.884Z,95756.16
2018-11-20T07:53:22.193Z,95762.05
2018-11-20T07:59:30.558Z,95762.48
2018-11-20T08:02:18.895Z,95762.48
2018-11-20T08:05:07.157Z,95755.86
2018-11-20T08:13:44.136Z,95744.26
2018-11-20T08:16:19.305Z,95757.68
2018-11-20T08:19:07.564Z,95754.38
2018-11-20T08:21:55.863Z,95757.77
2018-11-20T08:33:20.156Z,95745.51
2018-11-20T08:36:08.369Z,95743.14
2018-11-20T08:38:56.729Z,95738.80
2018-11-20T08:45:01.193Z,95734.91
2018-11-20T08:50:56.954Z,95744.66
2018-11-20T08:53:48.170Z,95747.61
2018-11-20T08:56:36.335Z,95756.56
2018-11-20T08:59:18.555Z,95758.37
2018-11-20T09:02:06.943Z,95761.92
2018-11-20T09:07:51.589Z,95760.34
2018-11-20T09:10:59.274Z,95763.35
2018-11-20T09:17:13.646Z,95752.66
2018-11-20T09:20:33.736Z,95733.65
2018-11-20T09:26:26.899Z,95742.05
2018-11-20T09:32:13.623Z,95752.95
2018-11-20T09:41:34.821Z,95751.67
2018-11-20T09:44:34.191Z,95757.22
2018-11-20T09:47:22.552Z,95746.93
2018-11-20T09:55:52.013Z,95758.95
2018-11-20T09:58:40.265Z,95753.63
2018-11-20T10:01:28.476Z,95751.17
2018-11-20T10:04:11.522Z,95750.92
2018-11-20T10:06:59.857Z,95743.07
2018-11-20T10:09:48.112Z,95743.20
2018-11-20T10:12:36.482Z,95735.25
2018-11-20T10:24:35.349Z,95717.79
2018-11-20T10:27:23.616Z,95712.43
2018-11-20T10:30:11.969Z,95710.78
2018-11-20T10:33:00.236Z,95712.13
2018-11-20T10:35:48.513Z,95715.12
2018-11-20T10:38:36.822Z,95705.48
2018-11-20T10:47:50.502Z,95700.95
2018-11-20T10:53:27.789Z,95693.45
2018-11-20T10:59:18.966Z,95689.28
2018-11-20T11:02:07.269Z,95687.71
2018-11-20T11:04:55.607Z,95684.38
2018-11-20T11:07:44.082Z,95685.25
2018-11-20T11:13:30.325Z,95679.02
2018-11-20T11:16:18.675Z,95683.67
2018-11-20T11:19:06.970Z,95683.22
2018-11-20T11:21:55.271Z,95685.34
2018-11-20T11:24:44.144Z,95676.94
2018-11-20T11:30:38.272Z,95670.34
2018-11-20T11:39:44.786Z,95668.02
2018-11-20T11:42:33.174Z,95666.37
2018-11-20T11:45:21.435Z,95667.24
2018-11-20T11:48:09.702Z,95653.86
2018-11-20T11:50:58.023Z,95648.42
2018-11-20T11:53:46.315Z,95645.94
2018-11-20T11:56:34.673Z,95659.83
2018-11-20T11:59:23.691Z,95659.44
2018-11-20T12:05:38.292Z,95655.77
2018-11-20T12:08:26.533Z,95655.78
2018-11-20T12:11:14.813Z,95657.89
2018-11-20T12:14:03.196Z,95665.09
2018-11-20T12:16:51.568Z,95661.73
2018-11-20T12:22:36.736Z,95676.35
2018-11-20T12:31:25.645Z,95672.64
2018-11-20T12:37:17.588Z,95671.00
2018-11-20T12:40:35.288Z,95673.93
2018-11-20T12:46:56.296Z,95678.50
2018-11-20T12:49:44.662Z,95681.02
2018-11-20T12:55:29.999Z,95678.50
2018-11-20T12:58:18.436Z,95681.01
2018-11-20T13:04:09.824Z,95674.73
2018-11-20T13:10:25.228Z,95682.72
2018-11-20T13:16:10.446Z,95686.09
2018-11-20T13:22:25.106Z,95694.45
2018-11-20T13:25:17.063Z,95685.23
2018-11-20T13:31:02.177Z,95678.44
2018-11-20T13:34:09.893Z,95681.86
2018-11-20T13:36:58.256Z,95682.67
2018-11-20T13:39:46.566Z,95685.19
2018-11-20T13:42:29.634Z,95686.90
2018-11-20T13:45:18.619Z,95696.97
2018-11-20T13:48:25.478Z,95694.85
2018-11-20T13:51:01.379Z,95702.80
2018-11-20T13:56:46.695Z,95709.95
2018-11-20T13:59:35.823Z,95712.88
2018-11-20T14:02:27.802Z,95707.42
2018-11-20T14:05:16.075Z,95715.39
2018-11-20T14:08:05.016Z,95723.73
2018-11-20T14:10:53.276Z,95730.45
2018-11-20T14:13:41.553Z,95734.64
2018-11-20T14:16:53.299Z,95737.95
2018-11-20T14:22:47.872Z,95757.18
2018-11-20T14:26:04.455Z,95770.59
2018-11-20T14:28:52.837Z,95773.06
2018-11-20T14:32:00.569Z,95767.62
2018-11-20T14:34:48.921Z,95770.93
2018-11-20T14:37:37.395Z,95768.81
2018-11-20T14:40:29.408Z,95752.77
2018-11-20T14:46:25.721Z,95774.59
2018-11-20T14:49:13.963Z,95778.69
2018-11-20T14:52:02.316Z,95771.91
2018-11-20T14:55:10.080Z,95774.79
2018-11-20T14:57:58.188Z,95775.14
2018-11-20T15:00:46.309Z,95774.21
2018-11-20T15:03:38.596Z,95784.22
2018-11-20T15:12:13.573Z,95798.20
2018-11-20T15:15:21.225Z,95801.47
2018-11-20T15:18:09.477Z,95809.75
2018-11-20T15:30:06.150Z,95825.30
2018-11-20T15:32:54.551Z,95833.56
2018-11-20T15:41:57.988Z,95843.43
2018-11-20T15:50:59.198Z,95853.66
2018-11-20T15:53:47.478Z,95857.31
2018-11-20T15:56:35.854Z,95862.22
2018-11-20T15:59:24.246Z,95852.91
2018-11-20T16:02:12.558Z,95861.14
2018-11-20T16:05:00.995Z,95871.09
2018-11-20T16:14:15.815Z,95880.84
2018-11-20T16:17:27.116Z,95882.05
2018-11-20T16:20:16.032Z,95893.25
2018-11-20T16:29:07.828Z,95900.45
2018-11-20T16:31:56.325Z,95907.83
2018-11-20T16:37:35.676Z,95914.73
2018-11-20T16:40:25.032Z,95909.13
2018-11-20T16:43:13.401Z,95923.32
2018-11-20T16:46:01.703Z,95926.52
2018-11-20T16:48:50.024Z,95930.18
2018-11-20T16:51:38.746Z,95938.90
2018-11-20T17:03:40.473Z,95956.88
2018-11-20T17:06:29.816Z,95962.63
2018-11-20T17:09:18.118Z,95954.19
2018-11-20T17:12:06.380Z,95961.64
2018-11-20T17:14:54.630Z,95973.70
2018-11-20T17:26:31.762Z,95994.55
2018-11-20T17:29:20.086Z,96001.99
2018-11-20T17:32:09.095Z,95996.83
2018-11-20T17:34:57.349Z,95999.09
2018-11-20T17:38:05.049Z,96007.36
2018-11-20T17:43:56.374Z,96009.77
2018-11-20T17:46:42.997Z,96021.84
2018-11-20T17:52:34.478Z,96028.22
2018-11-20T17:55:22.818Z,96028.52
2018-11-20T17:58:11.170Z,96032.63
2018-11-20T18:00:59.459Z,96036.77
2018-11-20T18:03:47.793Z,96032.55
2018-11-20T18:13:04.993Z,96048.92
2018-11-20T18:15:53.348Z,96045.84
2018-11-20T18:19:01.022Z,96055.81
2018-11-20T18:21:49.338Z,96055.81
2018-11-20T18:24:37.596Z,96050.34
2018-11-20T18:33:28.245Z,96055.31
2018-11-20T18:36:19.831Z,96061.17
2018-11-20T18:39:08.293Z,96056.16
2018-11-20T18:41:56.775Z,96064.92
2018-11-20T18:44:45.310Z,96064.48
2018-11-20T18:47:33.787Z,96073.67
2018-11-20T18:50:22.310Z,96073.31
2018-11-20T18:53:10.816Z,96075.00
2018-11-20T18:59:06.706Z,96083.59
2018-11-20T19:04:58.415Z,96084.34
2018-11-20T19:07:47.025Z,96093.14
2018-11-20T19:10:35.598Z,96094.39
2018-11-20T19:13:24.164Z,96091.81
2018-11-20T19:16:12.749Z,96098.41
2018-11-20T19:24:58.708Z,96113.15
2018-11-20T19:33:54.660Z,96122.09
2018-11-20T19:46:15.039Z,96134.38
2018-11-20T19:49:03.763Z,96137.14
2018-11-20T19:58:18.463Z,96150.33
2018-11-20T20:04:10.992Z,96157.53
2018-11-20T20:06:59.798Z,96159.48
2018-11-20T20:09:48.444Z,96156.45
2018-11-20T20:12:56.171Z,96159.73
2018-11-20T20:15:44.793Z,96162.58
2018-11-20T20:24:39.399Z,96167.14
2018-11-20T20:27:31.082Z,96177.87
2018-11-20T20:30:21.862Z,96179.08
2018-11-20T20:33:13.309Z,96175.28
2018-11-20T20:36:21.166Z,96175.23
2018-11-20T20:48:26.085Z,96216.11
2018-11-20T20:51:14.737Z,96228.69
2018-11-20T20:54:22.882Z,96238.21
2018-11-20T20:57:19.569Z,96234.37
2018-11-20T21:06:11.302Z,96249.31
2018-11-20T21:08:59.801Z,96248.36
2018-11-20T21:11:48.374Z,96242.55
2018-11-20T21:14:59.509Z,96245.05
2018-11-20T21:17:48.022Z,96246.38
2018-11-20T21:26:54.672Z,96236.95
2018-11-20T21:29:32.875Z,96239.12
2018-11-20T21:32:21.388Z,96238.22
2018-11-20T21:35:09.923Z,96237.41
2018-11-20T21:37:58.437Z,96239.12
2018-11-20T21:40:47.088Z,96243.08
2018-11-20T21:43:35.534Z,96233.86
2018-11-20T21:46:57.081Z,96234.48
2018-11-20T21:52:36.156Z,96243.46
2018-11-20T21:55:22.186Z,96236.66
2018-11-20T21:58:10.469Z,96234.06
2018-11-20T22:01:02.599Z,96238.00
2018-11-20T22:03:51.047Z,96240.40
2018-11-20T22:06:39.473Z,96247.89
2018-11-20T22:09:29.159Z,96250.48
2018-11-20T22:21:14.830Z,96258.96
2018-11-20T22:24:03.142Z,96262.41
2018-11-20T22:27:06.600Z,96259.02
2018-11-20T22:29:54.905Z,96258.30
2018-11-20T22:32:43.192Z,96262.18
2018-11-20T22:35:35.530Z,96262.72
2018-11-20T22:41:30.085Z,96261.27
2018-11-20T22:47:21.519Z,96273.94
2018-11-20T22:53:13.508Z,96285.07
2018-11-20T22:56:10.222Z,96285.98
2018-11-20T22:58:56.894Z,96280.17
2018-11-20T23:04:53.991Z,96285.27
2018-11-20T23:13:36.453Z,96294.81
2018-11-20T23:19:00.927Z,96299.47
2018-11-20T23:21:30.576Z,96305.37
2018-11-20T23:23:59.849Z,96302.02
2018-11-20T23:26:29.183Z,96305.37
2018-11-20T23:28:58.401Z,96311.37
2018-11-20T23:34:15.893Z,96314.65
2018-11-20T23:37:04.471Z,96311.28
2018-11-20T23:39:33.809Z,96309.66
2018-11-20T23:42:03.202Z,96301.29
2018-11-20T23:45:12.280Z,96305.47
2018-11-20T23:47:45.127Z,96300.91
2018-11-20T23:50:33.876Z,96298.66
2018-11-20T23:56:03.776Z,96296.45
2018-11-20T23:58:33.067Z,96299.38
